Country
Station

 

Weather  for  Mostar  -  Yugoslavia    Yugoslavia

  
3 °C (37 °F)
    
 
 

Current METAR for Mostar is :

LQMO 240200Z 36002KT CAVOK 03/02 Q1020

 

This is a report for Mostar - Yugoslavia.
 
The report was made one hour and 4 minutes ago, at 02:00 UTC .
The wind was blowing at a speed of 1.0 meters per second (2.3 miles per hour) from north (360°).
 
The temperature was 3 °C (37 °F), with a dew-point at 2 °C (36 °F).
The atmospheric pressure was 1020 hPa (30.12 inHg).
The relative humidity was 93.1%.
 
There were no clouds below 1500 meter (5000 feet) and no cumulonimbus clouds.
 
The overall visibility was greater than 10 kilometers (6.2 miles).
 

 
 
 
 

Country :   A   B   C   D   E   F   G   H   I   J   K   L   M   N   O   P   Q   R   S   T   U   V   W   Y   Z

 

Site Info  |  Disclaimer  |  Credits  |  Privacy
Contact us  |  Add to favorites
© 2013-2020 METARs - All rights reserved